Sighetu Marmatiei, Romania
Current Conditions -  °F | °C
As of 6:00 AM on Friday 28 Nov 2014 (Local Time) from LRBM Reporting Station
Clear Clear  
Wind Chill: 23°   Ceiling: Unl
Heat Index: 30°   Visibility: 6mi
Dew Point: 27°   Wind: 7mph
Humidity: 86%   Direction: 70°ENE
Pressure: 30.15"   Gusts: NA
Location:  47.93°N, 23.91°E
Report Text: LRBM 280300Z 07006KT CAVOK M01/M03 Q1021
Loading
Personal Weather Stations






























Interactive Weather Map New forecast layout! Learn more

10-Day Weather Forecast

Advertisements
Track Severe Weather on mobile